Cross Plains, TX (76443)

4:09 PM CST on February 28, 2015 (GMT -0600)
Rising Star | Change Station
CLOSE
Current Station
Personal Weather Station
Location: Rising Star, TX
Elevation: 1585 ft
Nearby Weather Stations
Active Advisory: Winter Weather Advisory Active Notice: Record Report

Elev 1585 ft 32.09 °N, 98.91 °W | Updated 4 seconds ago

Overcast
Overcast
28.8 °F
Feels Like 29 °F
N
0.0
Wind Variable Wind from ESE
Gusts 0.0 mph

Today
High -- | Low -- °F
--% Chance of Precip.
Yesterday
High -- | Low -- °F
Precip. -- in
7:05 AM 6:33 PM
Waxing Gibbous, 80% visible
Pressure 30.24 in
Visibility 3.0 miles
Clouds Overcast 300 ft
Windchill 29 °F
Dew Point 28 °F
Humidity 95%
Rainfall 0.00 in
Snow Depth Not available.
UV 0.0 out of 12
Pollen 6.10 out of 12
Air Quality Not available.
Flu Activity Not available.
METAR KCOM 282155Z AUTO 04005KT 3SM BR OVC003 M01/M01 A3024 RMK AO2 T10121012

More Conditions Fewer Conditions

Pressure 30.24 in
Visibility 3.0 miles
Clouds Overcast 300 ft
Windchill 29 °F
Dew Point 28 °F
Humidity 95%
Rainfall 0.00 in
Snow Depth Not available.
UV 0.0 out of 12
Pollen 6.10 out of 12
Air Quality Not available.
Flu Activity Not available.
METAR KCOM 282155Z AUTO 04005KT 3SM BR OVC003 M01/M01 A3024 RMK AO2 T10121012

More Conditions Fewer Conditions

10-Day Weather Forecast

Almanac

Astronomy

Feb. 28, 2015 Rise Set
Actual Time
Civil Twilight
Nautical Twilight
Astronomical Twilight
Moon
Length of Visible Light
Length of Day
Tomorrow will be .
, % of the Moon is Illuminated

Today's Extremes

State Highs State Lows

Community

WunderPhotos

Upload Photos

1,801,177 photos uploaded!

WunderBlogs® & News

Nearby

Air Quality

  Air Quality AQ Index Pollutant
Not available.

Snow Depth

Station Depth Elevation

Earthquake Activity

City Distance Mag. Time & Date
Minimum magnitude displayed is 2.5.

Coastal Water Temperatures

Place Temperature

Nearby Weather Stations

Winter Weather Advisory
Statement as of 2:55 PM CST on February 28, 2015

... Winter Weather Advisory now in effect until 9 am CST Sunday...

The Winter Weather Advisory is now in effect until 9 am CST
Sunday.

* Impacts: slick and hazardous roads... especially bridges...
overpasses... and secondary roads.

* Timing: through 9 am Sunday.

* Accumulations: a tenth of an inch or less of ice.

Precautionary/preparedness actions...

A Winter Weather Advisory means that periods of snow... sleet... or
freezing rain will cause travel difficulties. Be prepared for
slippery roads and limited visibilities and use caution while
driving.